CYYH

Taloyoak Airport

Taloyoak, Canada
METAR CYYH 222100Z 12002KT 1 1/4SM BR SKC M21/M24 A3031 RMK FG2 VIS E 3/4 FG VIS ABV GRN GRTR SLP269
Observed Flight Rules
Oct-22 @ 21:00 UTC (44 minutes ago) Instrument Flight Rules
Wind Visibility Clouds Conditions
120° at 2 knots 1 1/4 miles
  • Clear skies
  • Mist
Temperatures Readings
Current -21°C / -6°F
Dewpoint -24°C / -11°F
Humidity 77%
Altimeter 30.31" Hg
Pressure 1026.9 hPa
Elevation 28
METAR CYYH 222100Z 12002KT 1 1/4SM BR SKC M21/M24 A3031 RMK FG2 VIS E 3/4 FG VIS ABV GRN GRTR SLP269
Observed Flight Rules
Oct-22 @ 21:00 UTC
(44 minutes ago)
IFR
Wind Visibility
120° at 2 knots 1 1/4 miles
Clouds
  • Clear skies
Conditions
  • Mist
Temperature Dewpoint
-21°C / -6°F -24°C / -11°F
Humidity Altimeter Pressure
77% 30.31" Hg 1026.9 hPa